sensor_id;sensor_type;location;lat;lon;timestamp;pressure;altitude;pressure_sealevel;temperature;humidity
33845;BME280;20145;43.118;25.694;2023-01-30T00:00:55;99950.91;;;1.76;95.28
33845;BME280;20145;43.118;25.694;2023-01-30T00:03:22;99957.56;;;1.73;96.18
33845;BME280;20145;43.118;25.694;2023-01-30T00:05:48;99956.66;;;1.71;95.87
33845;BME280;20145;43.118;25.694;2023-01-30T00:08:14;99951.72;;;1.75;95.72
33845;BME280;20145;43.118;25.694;2023-01-30T00:10:40;99936.78;;;1.59;95.89
33845;BME280;20145;43.118;25.694;2023-01-30T00:13:06;99953.19;;;1.69;96.42
33845;BME280;20145;43.118;25.694;2023-01-30T00:15:32;99941.22;;;1.65;96.34
33845;BME280;20145;43.118;25.694;2023-01-30T00:17:58;99948.84;;;1.65;96.30
33845;BME280;20145;43.118;25.694;2023-01-30T00:20:23;99950.81;;;1.73;95.21
33845;BME280;20145;43.118;25.694;2023-01-30T00:22:49;99955.06;;;1.74;94.78
33845;BME280;20145;43.118;25.694;2023-01-30T00:25:14;99951.56;;;1.71;95.56
33845;BME280;20145;43.118;25.694;2023-01-30T00:27:40;99951.75;;;1.77;94.39
33845;BME280;20145;43.118;25.694;2023-01-30T00:30:06;99941.56;;;1.75;93.41
33845;BME280;20145;43.118;25.694;2023-01-30T00:32:32;99950.13;;;1.79;92.75
33845;BME280;20145;43.118;25.694;2023-01-30T00:34:58;99949.28;;;1.78;93.02
33845;BME280;20145;43.118;25.694;2023-01-30T00:37:24;99947.00;;;1.88;92.03
33845;BME280;20145;43.118;25.694;2023-01-30T00:39:49;99939.88;;;1.76;92.71
33845;BME280;20145;43.118;25.694;2023-01-30T00:42:15;99940.88;;;1.81;92.29
33845;BME280;20145;43.118;25.694;2023-01-30T00:44:59;99944.88;;;1.74;93.04
33845;BME280;20145;43.118;25.694;2023-01-30T00:47:43;99941.59;;;1.77;92.27
33845;BME280;20145;43.118;25.694;2023-01-30T00:50:08;99939.19;;;1.82;91.34
33845;BME280;20145;43.118;25.694;2023-01-30T00:52:34;99935.63;;;1.76;91.33
33845;BME280;20145;43.118;25.694;2023-01-30T00:55:00;99932.34;;;1.79;91.55
33845;BME280;20145;43.118;25.694;2023-01-30T00:57:25;99921.06;;;1.71;91.09
33845;BME280;20145;43.118;25.694;2023-01-30T00:59:51;99932.84;;;1.69;90.85
33845;BME280;20145;43.118;25.694;2023-01-30T01:02:16;99929.50;;;1.70;91.03
33845;BME280;20145;43.118;25.694;2023-01-30T01:04:42;99923.66;;;1.72;90.83
33845;BME280;20145;43.118;25.694;2023-01-30T01:07:11;99914.19;;;1.68;91.12
33845;BME280;20145;43.118;25.694;2023-01-30T01:09:37;99917.59;;;1.69;90.62
33845;BME280;20145;43.118;25.694;2023-01-30T01:12:03;99911.97;;;1.79;90.56
33845;BME280;20145;43.118;25.694;2023-01-30T01:14:29;99910.88;;;1.71;90.90
33845;BME280;20145;43.118;25.694;2023-01-30T01:16:55;99906.56;;;1.68;90.92
33845;BME280;20145;43.118;25.694;2023-01-30T01:19:21;99905.34;;;1.57;91.11
33845;BME280;20145;43.118;25.694;2023-01-30T01:21:47;99893.38;;;1.53;90.05
33845;BME280;20145;43.118;25.694;2023-01-30T01:24:13;99896.19;;;1.62;91.20
33845;BME280;20145;43.118;25.694;2023-01-30T01:26:40;99897.16;;;1.66;91.87
33845;BME280;20145;43.118;25.694;2023-01-30T01:29:07;99893.91;;;1.70;90.82
33845;BME280;20145;43.118;25.694;2023-01-30T01:31:35;99893.16;;;1.74;90.67
33845;BME280;20145;43.118;25.694;2023-01-30T01:34:01;99895.88;;;1.78;91.53
33845;BME280;20145;43.118;25.694;2023-01-30T01:36:26;99891.88;;;1.87;91.17
33845;BME280;20145;43.118;25.694;2023-01-30T01:38:52;99892.03;;;1.91;90.99
33845;BME280;20145;43.118;25.694;2023-01-30T01:41:17;99891.91;;;1.88;91.86
33845;BME280;20145;43.118;25.694;2023-01-30T01:44:15;99889.84;;;2.04;91.23
33845;BME280;20145;43.118;25.694;2023-01-30T01:46:42;99889.66;;;1.97;90.96
33845;BME280;20145;43.118;25.694;2023-01-30T01:49:38;99881.88;;;1.93;91.86
33845;BME280;20145;43.118;25.694;2023-01-30T01:52:04;99890.75;;;2.06;91.91
33845;BME280;20145;43.118;25.694;2023-01-30T01:54:46;99887.38;;;2.07;91.18
33845;BME280;20145;43.118;25.694;2023-01-30T01:57:21;99842.38;;;1.75;91.02
33845;BME280;20145;43.118;25.694;2023-01-30T01:59:56;99878.84;;;2.05;90.75
33845;BME280;20145;43.118;25.694;2023-01-30T02:02:24;99879.72;;;2.05;90.67
33845;BME280;20145;43.118;25.694;2023-01-30T02:04:54;99864.03;;;1.91;91.15
33845;BME280;20145;43.118;25.694;2023-01-30T02:07:44;99876.63;;;1.88;91.24
33845;BME280;20145;43.118;25.694;2023-01-30T02:10:21;99875.66;;;1.83;89.63
33845;BME280;20145;43.118;25.694;2023-01-30T02:12:49;99865.88;;;1.68;90.10
33845;BME280;20145;43.118;25.694;2023-01-30T02:15:17;99874.41;;;1.70;89.96
33845;BME280;20145;43.118;25.694;2023-01-30T02:17:43;99871.69;;;1.64;90.51
33845;BME280;20145;43.118;25.694;2023-01-30T02:39:43;99868.28;;;1.64;90.40
33845;BME280;20145;43.118;25.694;2023-01-30T02:47:44;99872.19;;;1.52;89.67
33845;BME280;20145;43.118;25.694;2023-01-30T02:50:16;99877.25;;;1.52;89.85
33845;BME280;20145;43.118;25.694;2023-01-30T02:52:43;99874.31;;;1.67;90.19
33845;BME280;20145;43.118;25.694;2023-01-30T02:55:18;99871.25;;;1.77;90.52
33845;BME280;20145;43.118;25.694;2023-01-30T02:57:44;99881.22;;;1.71;90.05
33845;BME280;20145;43.118;25.694;2023-01-30T03:00:10;99871.53;;;1.60;89.12
33845;BME280;20145;43.118;25.694;2023-01-30T03:02:51;99872.13;;;1.51;90.40
33845;BME280;20145;43.118;25.694;2023-01-30T03:11:46;99878.59;;;1.68;90.12
33845;BME280;20145;43.118;25.694;2023-01-30T03:16:49;99874.81;;;1.55;90.55
33845;BME280;20145;43.118;25.694;2023-01-30T03:19:18;99878.47;;;1.64;89.92
33845;BME280;20145;43.118;25.694;2023-01-30T03:21:44;99877.78;;;1.69;90.67
33845;BME280;20145;43.118;25.694;2023-01-30T03:24:11;99878.72;;;1.73;90.90
33845;BME280;20145;43.118;25.694;2023-01-30T03:26:45;99874.34;;;1.69;89.36
33845;BME280;20145;43.118;25.694;2023-01-30T03:29:11;99875.44;;;1.77;90.10
33845;BME280;20145;43.118;25.694;2023-01-30T03:31:37;99871.03;;;1.71;89.67
33845;BME280;20145;43.118;25.694;2023-01-30T03:34:02;99872.44;;;1.62;89.74
33845;BME280;20145;43.118;25.694;2023-01-30T03:36:28;99866.41;;;1.58;90.19
33845;BME280;20145;43.118;25.694;2023-01-30T03:38:53;99871.72;;;1.66;90.04
33845;BME280;20145;43.118;25.694;2023-01-30T03:41:19;99863.22;;;1.65;90.67
33845;BME280;20145;43.118;25.694;2023-01-30T03:43:45;99868.38;;;1.67;91.16
33845;BME280;20145;43.118;25.694;2023-01-30T03:46:10;99855.00;;;1.45;90.58
33845;BME280;20145;43.118;25.694;2023-01-30T03:48:36;99857.97;;;1.59;89.58
33845;BME280;20145;43.118;25.694;2023-01-30T03:51:01;99851.09;;;1.56;89.34
33845;BME280;20145;43.118;25.694;2023-01-30T03:53:27;99850.19;;;1.54;89.20
33845;BME280;20145;43.118;25.694;2023-01-30T03:55:52;99847.78;;;1.59;88.71
33845;BME280;20145;43.118;25.694;2023-01-30T03:58:18;99847.28;;;1.44;88.83
33845;BME280;20145;43.118;25.694;2023-01-30T04:00:43;99842.38;;;1.48;90.06
33845;BME280;20145;43.118;25.694;2023-01-30T04:03:09;99836.47;;;1.49;90.88
33845;BME280;20145;43.118;25.694;2023-01-30T04:05:34;99841.31;;;1.42;91.56
33845;BME280;20145;43.118;25.694;2023-01-30T04:08:00;99831.38;;;1.49;91.15
33845;BME280;20145;43.118;25.694;2023-01-30T04:10:26;99832.47;;;1.58;90.50
33845;BME280;20145;43.118;25.694;2023-01-30T04:12:52;99829.16;;;1.60;89.07
33845;BME280;20145;43.118;25.694;2023-01-30T04:15:17;99832.78;;;1.67;89.59
33845;BME280;20145;43.118;25.694;2023-01-30T04:17:43;99835.34;;;1.68;89.38
33845;BME280;20145;43.118;25.694;2023-01-30T04:20:09;99829.13;;;1.59;87.95
33845;BME280;20145;43.118;25.694;2023-01-30T04:22:35;99832.53;;;1.59;89.02
33845;BME280;20145;43.118;25.694;2023-01-30T04:25:01;99828.28;;;1.58;89.25
33845;BME280;20145;43.118;25.694;2023-01-30T04:27:27;99820.59;;;1.56;88.81
33845;BME280;20145;43.118;25.694;2023-01-30T04:29:52;99822.03;;;1.48;88.53
33845;BME280;20145;43.118;25.694;2023-01-30T04:32:18;99822.19;;;1.53;88.19
33845;BME280;20145;43.118;25.694;2023-01-30T04:34:43;99820.41;;;1.50;87.16
33845;BME280;20145;43.118;25.694;2023-01-30T04:37:10;99813.91;;;1.60;86.92
33845;BME280;20145;43.118;25.694;2023-01-30T04:39:36;99822.84;;;1.47;87.94
33845;BME280;20145;43.118;25.694;2023-01-30T04:42:02;99826.34;;;1.51;87.37
33845;BME280;20145;43.118;25.694;2023-01-30T04:44:27;99826.78;;;1.38;87.81
33845;BME280;20145;43.118;25.694;2023-01-30T04:46:53;99820.09;;;1.41;88.31
33845;BME280;20145;43.118;25.694;2023-01-30T04:49:19;99826.28;;;1.49;87.56
33845;BME280;20145;43.118;25.694;2023-01-30T04:51:44;99813.47;;;1.45;87.63
33845;BME280;20145;43.118;25.694;2023-01-30T04:54:10;99814.16;;;1.41;87.05
33845;BME280;20145;43.118;25.694;2023-01-30T04:56:37;99827.47;;;1.61;86.11
33845;BME280;20145;43.118;25.694;2023-01-30T04:59:02;99816.25;;;1.52;86.72
33845;BME280;20145;43.118;25.694;2023-01-30T05:01:31;99834.84;;;1.51;87.47
33845;BME280;20145;43.118;25.694;2023-01-30T05:03:57;99812.69;;;1.47;87.47
33845;BME280;20145;43.118;25.694;2023-01-30T05:06:22;99828.47;;;1.64;87.01
33845;BME280;20145;43.118;25.694;2023-01-30T05:08:49;99824.13;;;1.62;86.24
33845;BME280;20145;43.118;25.694;2023-01-30T05:11:15;99822.84;;;1.47;86.54
33845;BME280;20145;43.118;25.694;2023-01-30T05:13:40;99835.75;;;1.53;86.47
33845;BME280;20145;43.118;25.694;2023-01-30T05:16:08;99833.16;;;1.52;86.67
33845;BME280;20145;43.118;25.694;2023-01-30T05:18:34;99830.59;;;1.52;86.49
33845;BME280;20145;43.118;25.694;2023-01-30T05:21:10;99833.16;;;1.52;85.81
33845;BME280;20145;43.118;25.694;2023-01-30T05:23:35;99836.69;;;1.57;85.58
33845;BME280;20145;43.118;25.694;2023-01-30T05:26:01;99841.09;;;1.61;85.49
33845;BME280;20145;43.118;25.694;2023-01-30T05:28:27;99833.25;;;1.55;85.48
33845;BME280;20145;43.118;25.694;2023-01-30T05:30:54;99831.44;;;1.51;85.74
33845;BME280;20145;43.118;25.694;2023-01-30T05:33:19;99848.38;;;1.50;86.09
33845;BME280;20145;43.118;25.694;2023-01-30T05:35:47;99839.34;;;1.60;84.89
33845;BME280;20145;43.118;25.694;2023-01-30T05:38:13;99846.94;;;1.59;84.79
33845;BME280;20145;43.118;25.694;2023-01-30T05:40:39;99846.63;;;1.49;85.96
33845;BME280;20145;43.118;25.694;2023-01-30T05:43:05;99838.06;;;1.46;85.73
33845;BME280;20145;43.118;25.694;2023-01-30T05:45:31;99836.44;;;1.48;86.46
33845;BME280;20145;43.118;25.694;2023-01-30T05:47:56;99848.50;;;1.55;86.37
33845;BME280;20145;43.118;25.694;2023-01-30T05:50:22;99851.19;;;1.60;86.52
33845;BME280;20145;43.118;25.694;2023-01-30T05:52:47;99811.44;;;1.34;87.16
33845;BME280;20145;43.118;25.694;2023-01-30T05:55:13;99842.19;;;1.69;86.21
33845;BME280;20145;43.118;25.694;2023-01-30T05:57:38;99830.94;;;1.63;87.61
33845;BME280;20145;43.118;25.694;2023-01-30T06:00:05;99843.84;;;1.69;86.74
33845;BME280;20145;43.118;25.694;2023-01-30T06:02:31;99846.38;;;1.69;86.44
33845;BME280;20145;43.118;25.694;2023-01-30T06:04:57;99837.97;;;1.71;85.90
33845;BME280;20145;43.118;25.694;2023-01-30T06:07:22;99835.34;;;1.68;86.37
33845;BME280;20145;43.118;25.694;2023-01-30T06:09:48;99848.53;;;1.84;86.80
33845;BME280;20145;43.118;25.694;2023-01-30T06:12:14;99839.31;;;1.87;86.31
33845;BME280;20145;43.118;25.694;2023-01-30T06:14:39;99845.25;;;1.88;85.23
33845;BME280;20145;43.118;25.694;2023-01-30T06:17:05;99853.06;;;1.94;86.52
33845;BME280;20145;43.118;25.694;2023-01-30T06:19:30;99843.38;;;1.81;85.20
33845;BME280;20145;43.118;25.694;2023-01-30T06:21:56;99856.50;;;1.94;86.04
33845;BME280;20145;43.118;25.694;2023-01-30T06:24:23;99857.88;;;2.13;85.54
33845;BME280;20145;43.118;25.694;2023-01-30T06:26:49;99856.94;;;2.10;85.83
33845;BME280;20145;43.118;25.694;2023-01-30T06:29:14;99854.88;;;2.27;85.24
33845;BME280;20145;43.118;25.694;2023-01-30T06:31:40;99854.75;;;2.22;83.69
33845;BME280;20145;43.118;25.694;2023-01-30T06:34:05;99854.84;;;2.25;84.12
33845;BME280;20145;43.118;25.694;2023-01-30T06:36:31;99858.78;;;2.44;85.21
33845;BME280;20145;43.118;25.694;2023-01-30T06:38:57;99842.66;;;2.15;83.93
33845;BME280;20145;43.118;25.694;2023-01-30T06:41:22;99848.59;;;2.15;84.20
33845;BME280;20145;43.118;25.694;2023-01-30T06:43:48;99842.41;;;2.06;84.68
33845;BME280;20145;43.118;25.694;2023-01-30T06:46:13;99844.34;;;2.14;84.90
33845;BME280;20145;43.118;25.694;2023-01-30T06:48:39;99848.28;;;2.05;85.30
33845;BME280;20145;43.118;25.694;2023-01-30T06:51:04;99843.03;;;1.98;85.76
33845;BME280;20145;43.118;25.694;2023-01-30T06:53:30;99842.56;;;2.12;85.03
33845;BME280;20145;43.118;25.694;2023-01-30T06:55:57;99835.56;;;2.05;85.46
33845;BME280;20145;43.118;25.694;2023-01-30T06:58:23;99844.34;;;2.14;84.85
33845;BME280;20145;43.118;25.694;2023-01-30T07:00:49;99832.91;;;2.00;85.53
33845;BME280;20145;43.118;25.694;2023-01-30T07:03:16;99838.88;;;2.02;86.19
33845;BME280;20145;43.118;25.694;2023-01-30T07:05:43;99840.88;;;2.11;85.78
33845;BME280;20145;43.118;25.694;2023-01-30T07:08:09;99836.88;;;2.20;87.30
33845;BME280;20145;43.118;25.694;2023-01-30T07:10:35;99830.19;;;2.24;86.48
33845;BME280;20145;43.118;25.694;2023-01-30T07:13:01;99832.44;;;2.43;85.57
33845;BME280;20145;43.118;25.694;2023-01-30T07:15:27;99841.28;;;2.56;85.09
33845;BME280;20145;43.118;25.694;2023-01-30T07:17:53;99839.56;;;2.55;85.22
33845;BME280;20145;43.118;25.694;2023-01-30T07:20:18;99829.38;;;2.55;85.46
33845;BME280;20145;43.118;25.694;2023-01-30T07:22:52;99839.09;;;2.70;85.49
33845;BME280;20145;43.118;25.694;2023-01-30T07:25:22;99845.47;;;2.87;84.77
33845;BME280;20145;43.118;25.694;2023-01-30T07:27:50;99842.38;;;2.99;84.08
33845;BME280;20145;43.118;25.694;2023-01-30T07:30:16;99824.88;;;2.78;83.52
33845;BME280;20145;43.118;25.694;2023-01-30T07:32:42;99844.63;;;2.87;83.50
33845;BME280;20145;43.118;25.694;2023-01-30T07:35:08;99846.44;;;2.91;83.13
33845;BME280;20145;43.118;25.694;2023-01-30T07:37:33;99844.06;;;2.97;82.90
33845;BME280;20145;43.118;25.694;2023-01-30T07:39:59;99844.28;;;3.06;82.28
33845;BME280;20145;43.118;25.694;2023-01-30T07:42:24;99848.47;;;3.04;81.15
33845;BME280;20145;43.118;25.694;2023-01-30T07:44:50;99845.03;;;3.02;80.98
33845;BME280;20145;43.118;25.694;2023-01-30T07:47:15;99840.88;;;3.07;80.73
33845;BME280;20145;43.118;25.694;2023-01-30T07:49:44;99837.22;;;3.31;80.83
33845;BME280;20145;43.118;25.694;2023-01-30T07:52:09;99835.25;;;3.19;81.80
33845;BME280;20145;43.118;25.694;2023-01-30T07:54:35;99830.13;;;2.84;81.98
33845;BME280;20145;43.118;25.694;2023-01-30T07:57:01;99828.91;;;3.03;81.69
33845;BME280;20145;43.118;25.694;2023-01-30T07:59:26;99825.16;;;2.89;80.83
33845;BME280;20145;43.118;25.694;2023-01-30T08:01:52;99830.53;;;3.00;80.86
33845;BME280;20145;43.118;25.694;2023-01-30T08:04:17;99825.94;;;2.86;80.66
33845;BME280;20145;43.118;25.694;2023-01-30T08:06:43;99836.34;;;2.94;81.98
33845;BME280;20145;43.118;25.694;2023-01-30T08:09:08;99823.31;;;2.52;81.36
33845;BME280;20145;43.118;25.694;2023-01-30T08:11:34;99829.13;;;2.79;81.76
33845;BME280;20145;43.118;25.694;2023-01-30T08:14:00;99825.22;;;2.92;82.50
33845;BME280;20145;43.118;25.694;2023-01-30T08:16:26;99806.84;;;2.71;80.93
33845;BME280;20145;43.118;25.694;2023-01-30T08:18:51;99821.47;;;2.78;82.65
33845;BME280;20145;43.118;25.694;2023-01-30T08:21:17;99817.84;;;3.03;80.57
33845;BME280;20145;43.118;25.694;2023-01-30T08:23:42;99822.44;;;3.18;80.43
33845;BME280;20145;43.118;25.694;2023-01-30T08:26:08;99824.06;;;3.14;80.12
33845;BME280;20145;43.118;25.694;2023-01-30T08:28:33;99823.88;;;3.41;79.84
33845;BME280;20145;43.118;25.694;2023-01-30T08:30:59;99809.97;;;3.28;79.07
33845;BME280;20145;43.118;25.694;2023-01-30T08:33:24;99814.53;;;3.07;79.31
33845;BME280;20145;43.118;25.694;2023-01-30T08:35:50;99818.13;;;3.15;80.51
33845;BME280;20145;43.118;25.694;2023-01-30T08:38:16;99809.56;;;3.11;80.78
33845;BME280;20145;43.118;25.694;2023-01-30T08:40:42;99801.66;;;3.01;80.90
33845;BME280;20145;43.118;25.694;2023-01-30T08:43:08;99805.38;;;3.13;80.20
33845;BME280;20145;43.118;25.694;2023-01-30T08:45:34;99811.00;;;3.37;79.38
33845;BME280;20145;43.118;25.694;2023-01-30T08:48:02;99792.75;;;2.83;82.08
33845;BME280;20145;43.118;25.694;2023-01-30T08:50:28;99803.69;;;3.14;80.47
33845;BME280;20145;43.118;25.694;2023-01-30T08:52:54;99808.38;;;2.99;80.80
33845;BME280;20145;43.118;25.694;2023-01-30T08:55:20;99813.53;;;3.00;81.41
33845;BME280;20145;43.118;25.694;2023-01-30T08:57:47;99811.19;;;3.08;80.65
33845;BME280;20145;43.118;25.694;2023-01-30T09:00:13;99804.16;;;2.99;81.23
33845;BME280;20145;43.118;25.694;2023-01-30T09:02:39;99802.16;;;2.87;80.78
33845;BME280;20145;43.118;25.694;2023-01-30T09:05:05;99798.13;;;2.96;81.22
33845;BME280;20145;43.118;25.694;2023-01-30T09:07:31;99800.75;;;2.99;80.75
33845;BME280;20145;43.118;25.694;2023-01-30T09:09:57;99791.88;;;2.83;80.85
33845;BME280;20145;43.118;25.694;2023-01-30T09:12:22;99781.22;;;2.64;80.52
33845;BME280;20145;43.118;25.694;2023-01-30T09:14:48;99780.09;;;2.55;81.16
33845;BME280;20145;43.118;25.694;2023-01-30T09:17:14;99780.22;;;2.59;81.93
33845;BME280;20145;43.118;25.694;2023-01-30T09:19:39;99776.50;;;2.80;81.96
33845;BME280;20145;43.118;25.694;2023-01-30T09:22:05;99772.94;;;2.73;82.39
33845;BME280;20145;43.118;25.694;2023-01-30T09:24:34;99772.22;;;2.79;81.52
33845;BME280;20145;43.118;25.694;2023-01-30T09:27:00;99768.13;;;2.85;81.93
33845;BME280;20145;43.118;25.694;2023-01-30T09:29:26;99767.47;;;2.91;82.61
33845;BME280;20145;43.118;25.694;2023-01-30T09:31:53;99751.28;;;2.90;81.88
33845;BME280;20145;43.118;25.694;2023-01-30T09:34:21;99750.84;;;2.72;81.73
33845;BME280;20145;43.118;25.694;2023-01-30T09:36:52;99750.91;;;2.75;81.38
33845;BME280;20145;43.118;25.694;2023-01-30T09:39:18;99738.91;;;2.71;82.78
33845;BME280;20145;43.118;25.694;2023-01-30T09:53:09;99725.66;;;3.21;81.30
33845;BME280;20145;43.118;25.694;2023-01-30T09:55:39;99716.94;;;3.11;81.12
33845;BME280;20145;43.118;25.694;2023-01-30T09:58:20;99716.53;;;3.30;81.70
33845;BME280;20145;43.118;25.694;2023-01-30T10:00:48;99719.38;;;3.05;80.09
33845;BME280;20145;43.118;25.694;2023-01-30T10:03:34;99713.44;;;3.06;81.29
33845;BME280;20145;43.118;25.694;2023-01-30T10:06:10;99707.50;;;3.07;80.94
33845;BME280;20145;43.118;25.694;2023-01-30T10:08:51;99702.25;;;3.01;81.46
33845;BME280;20145;43.118;25.694;2023-01-30T10:27:55;99670.22;;;3.12;81.65
33845;BME280;20145;43.118;25.694;2023-01-30T10:30:22;99669.56;;;3.21;81.69
33845;BME280;20145;43.118;25.694;2023-01-30T10:33:06;99662.03;;;3.25;81.67
33845;BME280;20145;43.118;25.694;2023-01-30T10:35:38;99661.59;;;3.46;82.29
33845;BME280;20145;43.118;25.694;2023-01-30T10:38:36;99656.94;;;3.68;81.69
33845;BME280;20145;43.118;25.694;2023-01-30T10:41:37;99652.41;;;3.98;81.72
33845;BME280;20145;43.118;25.694;2023-01-30T10:44:02;99634.47;;;3.95;79.55
33845;BME280;20145;43.118;25.694;2023-01-30T10:49:42;99630.94;;;3.43;79.68
33845;BME280;20145;43.118;25.694;2023-01-30T11:00:42;99609.88;;;3.99;77.78
33845;BME280;20145;43.118;25.694;2023-01-30T11:03:38;99613.22;;;3.95;77.36
33845;BME280;20145;43.118;25.694;2023-01-30T11:06:11;99603.72;;;3.86;77.06
33845;BME280;20145;43.118;25.694;2023-01-30T11:08:41;99597.91;;;3.95;77.93
33845;BME280;20145;43.118;25.694;2023-01-30T11:11:29;99600.25;;;3.83;75.81
33845;BME280;20145;43.118;25.694;2023-01-30T11:14:06;99600.91;;;3.74;77.51
33845;BME280;20145;43.118;25.694;2023-01-30T11:16:39;99587.34;;;3.31;77.21
33845;BME280;20145;43.118;25.694;2023-01-30T11:19:07;99577.25;;;3.35;77.51
33845;BME280;20145;43.118;25.694;2023-01-30T11:21:33;99577.22;;;3.34;79.03
33845;BME280;20145;43.118;25.694;2023-01-30T11:24:09;99566.16;;;3.33;78.54
33845;BME280;20145;43.118;25.694;2023-01-30T11:26:36;99561.94;;;3.35;77.20
33845;BME280;20145;43.118;25.694;2023-01-30T11:29:33;99556.22;;;3.49;78.69
33845;BME280;20145;43.118;25.694;2023-01-30T11:32:04;99557.22;;;3.57;77.60
33845;BME280;20145;43.118;25.694;2023-01-30T11:34:35;99550.94;;;3.85;77.52
33845;BME280;20145;43.118;25.694;2023-01-30T11:37:29;99551.34;;;4.08;76.99
33845;BME280;20145;43.118;25.694;2023-01-30T11:39:55;99546.34;;;4.16;75.71
33845;BME280;20145;43.118;25.694;2023-01-30T11:42:25;99541.56;;;3.83;76.37
33845;BME280;20145;43.118;25.694;2023-01-30T11:44:55;99543.16;;;3.79;76.66
33845;BME280;20145;43.118;25.694;2023-01-30T11:47:27;99518.59;;;3.84;76.11
33845;BME280;20145;43.118;25.694;2023-01-30T11:49:55;99528.97;;;3.95;74.63
33845;BME280;20145;43.118;25.694;2023-01-30T11:52:25;99518.47;;;3.76;75.74
33845;BME280;20145;43.118;25.694;2023-01-30T11:54:57;99516.38;;;3.54;76.48
33845;BME280;20145;43.118;25.694;2023-01-30T11:57:39;99511.91;;;3.42;76.68
33845;BME280;20145;43.118;25.694;2023-01-30T12:00:16;99509.22;;;3.34;76.60
33845;BME280;20145;43.118;25.694;2023-01-30T12:02:44;99507.72;;;3.44;75.68
33845;BME280;20145;43.118;25.694;2023-01-30T12:07:50;99508.47;;;3.40;76.15
33845;BME280;20145;43.118;25.694;2023-01-30T12:10:30;99499.25;;;3.48;74.96
33845;BME280;20145;43.118;25.694;2023-01-30T12:12:59;99499.13;;;3.41;76.74
33845;BME280;20145;43.118;25.694;2023-01-30T12:15:27;99493.66;;;3.66;76.19
33845;BME280;20145;43.118;25.694;2023-01-30T12:20:52;99485.94;;;3.63;74.08
33845;BME280;20145;43.118;25.694;2023-01-30T12:25:56;99481.00;;;3.74;73.78
33845;BME280;20145;43.118;25.694;2023-01-30T12:28:57;99460.50;;;3.68;73.78
33845;BME280;20145;43.118;25.694;2023-01-30T12:31:46;99471.44;;;3.62;74.83
33845;BME280;20145;43.118;25.694;2023-01-30T12:34:14;99465.50;;;3.62;74.79
33845;BME280;20145;43.118;25.694;2023-01-30T12:52:49;99457.50;;;3.42;74.30
33845;BME280;20145;43.118;25.694;2023-01-30T13:03:40;99451.00;;;3.59;75.07
33845;BME280;20145;43.118;25.694;2023-01-30T13:06:38;99449.47;;;3.69;73.60
33845;BME280;20145;43.118;25.694;2023-01-30T13:15:24;99445.88;;;3.57;74.74
33845;BME280;20145;43.118;25.694;2023-01-30T13:20:45;99437.03;;;3.37;74.76
33845;BME280;20145;43.118;25.694;2023-01-30T13:26:04;99428.69;;;3.47;75.62
33845;BME280;20145;43.118;25.694;2023-01-30T13:28:45;99423.91;;;3.67;75.38
33845;BME280;20145;43.118;25.694;2023-01-30T13:31:18;99422.63;;;3.41;74.70
33845;BME280;20145;43.118;25.694;2023-01-30T13:33:48;99410.84;;;3.49;74.03
33845;BME280;20145;43.118;25.694;2023-01-30T13:36:21;99422.03;;;3.57;76.10
33845;BME280;20145;43.118;25.694;2023-01-30T13:41:21;99409.94;;;3.44;73.87
33845;BME280;20145;43.118;25.694;2023-01-30T13:43:52;99407.97;;;3.29;75.22
33845;BME280;20145;43.118;25.694;2023-01-30T13:46:24;99420.06;;;3.41;75.12
33845;BME280;20145;43.118;25.694;2023-01-30T13:49:19;99403.91;;;3.39;74.97
33845;BME280;20145;43.118;25.694;2023-01-30T13:51:57;99408.16;;;3.40;75.53
33845;BME280;20145;43.118;25.694;2023-01-30T13:54:50;99403.53;;;3.19;75.81
33845;BME280;20145;43.118;25.694;2023-01-30T13:57:40;99408.84;;;3.29;76.73
33845;BME280;20145;43.118;25.694;2023-01-30T14:00:29;99399.44;;;3.27;76.65
33845;BME280;20145;43.118;25.694;2023-01-30T14:16:39;99389.41;;;3.36;74.71
33845;BME280;20145;43.118;25.694;2023-01-30T14:19:41;99392.44;;;3.13;76.52
33845;BME280;20145;43.118;25.694;2023-01-30T14:22:27;99387.91;;;2.99;76.39
33845;BME280;20145;43.118;25.694;2023-01-30T14:35:44;99374.38;;;3.01;76.75
33845;BME280;20145;43.118;25.694;2023-01-30T14:38:14;99378.69;;;3.05;75.65
33845;BME280;20145;43.118;25.694;2023-01-30T14:48:50;99356.47;;;2.97;76.14
33845;BME280;20145;43.118;25.694;2023-01-30T14:56:56;99357.97;;;2.87;76.90
33845;BME280;20145;43.118;25.694;2023-01-30T15:07:18;99355.19;;;2.73;78.00
33845;BME280;20145;43.118;25.694;2023-01-30T15:21:18;99356.94;;;2.76;80.01
33845;BME280;20145;43.118;25.694;2023-01-30T15:29:28;99344.28;;;2.80;78.14
33845;BME280;20145;43.118;25.694;2023-01-30T15:32:00;99331.41;;;2.73;78.72
33845;BME280;20145;43.118;25.694;2023-01-30T15:34:30;99332.06;;;2.62;78.73
33845;BME280;20145;43.118;25.694;2023-01-30T15:36:59;99335.47;;;2.63;79.23
33845;BME280;20145;43.118;25.694;2023-01-30T15:39:26;99342.19;;;2.59;78.26
33845;BME280;20145;43.118;25.694;2023-01-30T15:41:58;99337.00;;;2.53;80.11
33845;BME280;20145;43.118;25.694;2023-01-30T15:50:19;99323.66;;;2.22;83.39
33845;BME280;20145;43.118;25.694;2023-01-30T15:52:46;99351.00;;;2.31;82.77
33845;BME280;20145;43.118;25.694;2023-01-30T15:55:24;99347.81;;;2.02;81.87
33845;BME280;20145;43.118;25.694;2023-01-30T15:57:54;99335.81;;;1.95;82.25
33845;BME280;20145;43.118;25.694;2023-01-30T16:02:50;99333.72;;;1.77;82.48
33845;BME280;20145;43.118;25.694;2023-01-30T16:05:18;99335.34;;;1.73;82.87
33845;BME280;20145;43.118;25.694;2023-01-30T16:07:48;99338.63;;;1.68;82.61
33845;BME280;20145;43.118;25.694;2023-01-30T16:10:18;99342.88;;;1.69;83.51
33845;BME280;20145;43.118;25.694;2023-01-30T16:12:45;99329.38;;;1.71;82.94
33845;BME280;20145;43.118;25.694;2023-01-30T16:15:19;99331.81;;;1.67;84.26
33845;BME280;20145;43.118;25.694;2023-01-30T16:18:00;99330.16;;;1.69;83.94
33845;BME280;20145;43.118;25.694;2023-01-30T16:20:27;99328.31;;;1.62;83.90
33845;BME280;20145;43.118;25.694;2023-01-30T16:22:54;99324.03;;;1.59;84.39